DXB weather

Public forecast

Using degrees Celsius for public forecast. Weather courtesy of forecast.io.

Current aviation weather report (METAR) for Dubai International Airport

Retrieved 2020/08/15 16:00 UTC (25 minutes ago):

OMDB 151600Z 35008KT CAVOK 37/28 Q0992 NOSIG

Aviation forecast (TAF) for Dubai International Airport

Retrieved 2020/08/15 12:00 UTC (4 hours ago):

TAF OMDB 151056Z 1512/1618 35010KT 8000 NSC BECMG 1518/1520 10008KT BECMG 1607/1609 33012KT BECMG 1616/1618 08005KT